Página principal
METAR-TAF:

METAR-TAF

Aeroportos :

Iqaluit, Nunavut, Canadá

latitude: 63-45N, longitude: 068-33W, altura: 34 m

Observação actual do tempo

O boletim foi feito há 18 minutos, às 09:00 UTC
Vento calmo
Temperatura 3°C
Humidade 81%
Pressão 1002 hPa
Visibilidade: 48.3 km
Poucas nuvensa uma altura de 25000 ft

METAR: CYFB 180900Z 00000KT 30SM FEW250 03/00 A2960 RMK CI1 SLP027

Hora: 05:18 (09:18 UTC)

Previsão

O boletim foi feito há 3 horas e 40 minutos, às 05:38 UTC
Previsão válida de 18 às 06 UTC a 19 às 06 UTC
Vento 2 kt com direcção variável
Visibilidade: 10 km
Céu limpo
A partir de 19 às 0000 UTC
Vento 5 kt de noroeste
Visibilidade: 10 km
Nuvens fragmentadasa uma altura de 10000 ft

TAF: CYFB 180538Z 1806/1906 VRB02KT P6SM SKC FM190000 32005KT P6SM BKN100 RMK NXT FCST BY 181200Z

Observações e previsões do tempo de mais de 4000 aeroportos (mensagens METAR e TAF).

As estações disponíveis são os pontos amarelos e vermelhos sobre o mapa.

Mova o rato sobre o mapa para ver o nome da estação.

Depois clique no ponto para visualizar as observações e previsões meteorológicas.

Para alterar o mapa : clique nos botões verdes com uma cruz preta para aumentar o zoom; no botão verde com uma pitada de zoom; ou nas setas verdes para mapas adjacentes.


METAR-TAF: